createdAt,value
2023-12-15T00:01:03.028Z,3.44
2023-12-15T00:03:47.017Z,3.40
2023-12-15T00:06:13.939Z,3.49
2023-12-15T00:08:41.921Z,3.41
2023-12-15T00:11:09.477Z,3.28
2023-12-15T00:13:36.441Z,3.25
2023-12-15T00:16:03.496Z,3.36
2023-12-15T00:18:30.041Z,3.27
2023-12-15T00:20:56.793Z,3.25
2023-12-15T00:23:23.232Z,3.51
2023-12-15T00:25:50.050Z,3.49
2023-12-15T00:28:16.674Z,3.47
2023-12-15T00:30:43.528Z,3.44
2023-12-15T00:33:10.070Z,3.57
2023-12-15T00:35:36.902Z,3.40
2023-12-15T00:38:03.490Z,3.50
2023-12-15T00:40:30.416Z,3.53
2023-12-15T00:42:56.889Z,3.44
2023-12-15T00:45:23.731Z,3.54
2023-12-15T00:47:50.492Z,3.42
2023-12-15T00:50:17.466Z,3.47
2023-12-15T00:52:43.818Z,3.39
2023-12-15T00:55:10.611Z,3.49
2023-12-15T00:57:37.177Z,3.42
2023-12-15T01:00:04.873Z,3.40
2023-12-15T01:02:31.483Z,3.44
2023-12-15T01:04:58.361Z,3.34
2023-12-15T01:07:25.204Z,3.35
2023-12-15T01:09:51.928Z,3.67
2023-12-15T01:12:18.288Z,3.92
2023-12-15T01:14:45.332Z,3.85
2023-12-15T01:17:11.795Z,4.32
2023-12-15T01:19:38.542Z,4.05
2023-12-15T01:22:04.933Z,3.86
2023-12-15T01:24:31.636Z,3.83
2023-12-15T01:26:58.032Z,3.73
2023-12-15T01:29:24.726Z,3.74
2023-12-15T01:31:51.411Z,3.75
2023-12-15T01:34:18.191Z,3.85
2023-12-15T01:36:44.606Z,3.84
2023-12-15T01:39:11.345Z,3.77
2023-12-15T01:41:37.776Z,3.82
2023-12-15T01:44:04.617Z,3.68
2023-12-15T01:46:31.170Z,3.70
2023-12-15T01:48:58.774Z,3.59
2023-12-15T01:51:26.398Z,3.61
2023-12-15T01:53:53.140Z,3.96
2023-12-15T01:56:19.639Z,4.37
2023-12-15T01:58:46.351Z,4.51
2023-12-15T02:01:12.946Z,4.36
2023-12-15T02:03:40.470Z,4.11
2023-12-15T02:06:07.179Z,3.95
2023-12-15T02:08:34.033Z,3.77
2023-12-15T02:11:00.577Z,4.07
2023-12-15T02:13:28.009Z,3.78
2023-12-15T02:15:54.677Z,3.72
2023-12-15T02:18:21.511Z,3.74
2023-12-15T02:20:48.013Z,3.91
2023-12-15T02:23:14.799Z,3.87
2023-12-15T02:25:41.267Z,3.88
2023-12-15T02:28:08.083Z,3.81
2023-12-15T02:30:34.529Z,3.78
2023-12-15T02:33:01.430Z,3.85
2023-12-15T02:35:28.085Z,3.89
2023-12-15T02:37:54.923Z,3.96
2023-12-15T02:40:21.322Z,3.98
2023-12-15T02:42:48.049Z,3.95
2023-12-15T02:45:14.535Z,3.92
2023-12-15T02:47:41.863Z,3.97
2023-12-15T02:50:11.374Z,4.06
2023-12-15T02:52:38.113Z,3.97
2023-12-15T02:55:05.110Z,3.98
2023-12-15T02:57:31.875Z,4.02
2023-12-15T02:59:58.296Z,3.96
2023-12-15T03:02:25.068Z,3.97
2023-12-15T03:04:51.457Z,4.00
2023-12-15T03:07:18.265Z,3.97
2023-12-15T03:09:44.593Z,3.96
2023-12-15T03:12:11.290Z,3.99
2023-12-15T03:14:37.659Z,3.93
2023-12-15T03:17:05.018Z,3.99
2023-12-15T03:19:32.484Z,3.89
2023-12-15T03:21:59.199Z,3.93
2023-12-15T03:24:25.598Z,3.96
2023-12-15T03:26:52.240Z,4.02
2023-12-15T03:29:18.720Z,4.00
2023-12-15T03:31:45.587Z,3.95
2023-12-15T03:34:12.061Z,4.00
2023-12-15T03:36:39.278Z,4.01
2023-12-15T03:39:06.572Z,4.10
2023-12-15T03:41:33.413Z,4.16
2023-12-15T03:44:00.261Z,4.26
2023-12-15T03:46:27.037Z,4.16
2023-12-15T03:48:53.750Z,4.22
2023-12-15T03:51:20.430Z,4.19
2023-12-15T03:53:46.821Z,4.17
2023-12-15T03:56:13.810Z,4.12
2023-12-15T03:58:40.254Z,4.13
2023-12-15T04:01:07.006Z,4.18
2023-12-15T04:03:33.510Z,4.18
2023-12-15T04:06:02.412Z,4.23
2023-12-15T04:08:29.079Z,4.17
2023-12-15T04:10:56.963Z,4.20
2023-12-15T04:13:23.970Z,4.18
2023-12-15T04:15:55.191Z,4.21
2023-12-15T04:18:23.361Z,4.33
2023-12-15T04:20:50.353Z,4.19
2023-12-15T04:23:16.924Z,4.15
2023-12-15T04:25:43.872Z,4.12
2023-12-15T04:28:10.498Z,4.13
2023-12-15T04:30:37.480Z,4.10
2023-12-15T04:33:04.137Z,4.15
2023-12-15T04:35:31.447Z,4.03
2023-12-15T04:37:58.188Z,4.08
2023-12-15T04:40:25.363Z,4.18
2023-12-15T04:42:52.271Z,4.10
2023-12-15T04:45:19.296Z,4.06
2023-12-15T04:47:46.079Z,4.03
2023-12-15T04:50:13.069Z,4.01
2023-12-15T04:52:39.585Z,4.08
2023-12-15T04:55:06.716Z,4.13
2023-12-15T04:57:33.554Z,4.20
2023-12-15T05:00:00.504Z,4.23
2023-12-15T05:02:26.939Z,4.31
2023-12-15T05:04:53.896Z,4.36
2023-12-15T05:07:20.388Z,4.32
2023-12-15T05:09:47.710Z,4.27
2023-12-15T05:12:14.080Z,4.22
2023-12-15T05:14:40.829Z,4.22
2023-12-15T05:17:07.224Z,4.28
2023-12-15T05:19:33.986Z,4.24
2023-12-15T05:22:00.364Z,4.10
2023-12-15T05:24:27.177Z,4.12
2023-12-15T05:26:53.697Z,4.05
2023-12-15T05:29:20.321Z,4.10
2023-12-15T05:31:46.889Z,4.09
2023-12-15T05:34:14.673Z,4.06
2023-12-15T05:36:41.553Z,4.11
2023-12-15T05:39:08.455Z,4.08
2023-12-15T05:44:07.715Z,4.12
2023-12-15T05:46:36.080Z,4.09
2023-12-15T05:49:03.163Z,4.18
2023-12-15T05:51:29.725Z,4.16
2023-12-15T05:53:58.507Z,4.18
2023-12-15T05:56:25.215Z,4.14
2023-12-15T05:58:52.449Z,4.13
2023-12-15T06:01:18.800Z,4.18
2023-12-15T06:03:45.945Z,4.15
2023-12-15T06:06:12.762Z,4.19
2023-12-15T06:08:39.622Z,4.19
2023-12-15T06:11:06.313Z,4.20
2023-12-15T06:13:33.056Z,4.05
2023-12-15T06:15:59.910Z,4.03
2023-12-15T06:18:27.117Z,4.02
2023-12-15T06:20:53.738Z,4.06
2023-12-15T06:23:21.936Z,4.07
2023-12-15T06:25:48.812Z,4.03
2023-12-15T06:28:15.487Z,4.00
2023-12-15T06:30:42.211Z,4.12
2023-12-15T06:33:09.089Z,4.02
2023-12-15T06:35:35.758Z,4.13
2023-12-15T06:38:02.943Z,4.09
2023-12-15T06:40:29.609Z,4.11
2023-12-15T06:42:56.887Z,4.15
2023-12-15T06:45:23.442Z,4.05
2023-12-15T06:47:50.679Z,4.06
2023-12-15T06:50:17.558Z,4.14
2023-12-15T06:52:45.365Z,4.07
2023-12-15T06:55:11.878Z,3.94
2023-12-15T06:57:39.179Z,3.93
2023-12-15T07:00:07.388Z,3.87
2023-12-15T07:02:34.949Z,3.90
2023-12-15T07:05:01.843Z,3.97
2023-12-15T07:07:29.058Z,4.04
2023-12-15T07:09:55.608Z,4.09
2023-12-15T07:12:22.319Z,4.01
2023-12-15T07:14:48.721Z,4.00
2023-12-15T07:17:16.650Z,3.91
2023-12-15T07:19:43.435Z,4.03
2023-12-15T07:22:10.388Z,4.09
2023-12-15T07:24:36.993Z,4.14
2023-12-15T07:27:04.979Z,4.24
2023-12-15T07:29:31.652Z,4.16
2023-12-15T07:32:02.025Z,4.14
2023-12-15T07:34:28.552Z,4.14
2023-12-15T07:36:56.326Z,4.11
2023-12-15T07:39:23.011Z,4.10
2023-12-15T07:41:49.933Z,4.16
2023-12-15T07:44:17.119Z,4.24
2023-12-15T07:46:44.599Z,4.27
2023-12-15T07:49:11.401Z,4.23
2023-12-15T07:51:38.470Z,4.23
2023-12-15T07:54:05.421Z,4.21
2023-12-15T07:56:33.977Z,4.27
2023-12-15T07:59:00.799Z,4.35
2023-12-15T08:01:27.766Z,4.37
2023-12-15T08:03:54.491Z,4.36
2023-12-15T08:06:21.651Z,4.40
2023-12-15T08:08:48.465Z,4.48
2023-12-15T08:11:15.559Z,4.52
2023-12-15T08:13:42.354Z,4.55
2023-12-15T08:16:13.140Z,4.58
2023-12-15T08:18:42.358Z,4.58
2023-12-15T08:21:11.208Z,4.62
2023-12-15T08:23:38.090Z,4.66
2023-12-15T08:26:05.512Z,4.80
2023-12-15T08:28:32.283Z,4.68
2023-12-15T08:30:59.612Z,4.70
2023-12-15T08:33:28.174Z,4.77
2023-12-15T08:35:55.065Z,4.68
2023-12-15T08:38:21.640Z,4.59
2023-12-15T08:40:48.659Z,4.60
2023-12-15T08:43:15.320Z,4.47
2023-12-15T08:45:42.264Z,4.29
2023-12-15T08:48:09.048Z,4.07
2023-12-15T08:50:36.286Z,4.05
2023-12-15T08:53:02.941Z,4.14
2023-12-15T08:55:29.887Z,4.32
2023-12-15T08:57:56.732Z,4.28
2023-12-15T09:00:24.004Z,4.53
2023-12-15T09:02:53.039Z,4.53
2023-12-15T09:05:38.063Z,4.70
2023-12-15T09:08:10.762Z,4.89
2023-12-15T09:10:42.978Z,5.00
2023-12-15T09:13:11.065Z,5.05
2023-12-15T09:15:38.161Z,5.01
2023-12-15T09:18:06.125Z,5.05
2023-12-15T09:20:34.160Z,5.12
2023-12-15T09:23:06.161Z,5.10
2023-12-15T09:25:33.243Z,5.21
2023-12-15T09:27:59.752Z,5.31
2023-12-15T09:30:26.541Z,5.35
2023-12-15T09:32:53.181Z,5.35
2023-12-15T09:35:20.374Z,5.33
2023-12-15T09:37:46.961Z,5.36
2023-12-15T09:40:14.809Z,5.41
2023-12-15T09:42:41.514Z,5.42
2023-12-15T09:45:08.761Z,5.48
2023-12-15T09:47:38.397Z,5.56
2023-12-15T09:50:08.171Z,5.57
2023-12-15T09:52:37.500Z,5.55
2023-12-15T09:55:06.866Z,5.67
2023-12-15T09:57:34.822Z,5.73
2023-12-15T10:00:01.677Z,5.75
2023-12-15T10:02:30.958Z,5.78
2023-12-15T10:04:58.342Z,5.81
2023-12-15T10:07:24.929Z,5.81
2023-12-15T10:09:52.649Z,5.82
2023-12-15T10:12:19.617Z,5.82
2023-12-15T10:14:46.640Z,5.84
2023-12-15T10:17:14.105Z,5.82
2023-12-15T10:19:41.027Z,5.82
2023-12-15T10:22:07.619Z,5.69
2023-12-15T10:24:35.627Z,5.57
2023-12-15T10:27:04.166Z,5.59
2023-12-15T10:29:31.134Z,5.63
2023-12-15T10:31:58.617Z,5.66
2023-12-15T10:34:27.800Z,5.72
2023-12-15T10:36:55.092Z,5.62
2023-12-15T10:39:23.073Z,5.59
2023-12-15T10:41:52.259Z,5.57
2023-12-15T10:44:21.293Z,5.64
2023-12-15T10:46:47.844Z,5.77
2023-12-15T10:49:17.200Z,5.74
2023-12-15T10:51:44.160Z,5.80
2023-12-15T10:54:11.198Z,5.85
2023-12-15T10:56:38.696Z,5.84
2023-12-15T10:59:07.322Z,5.99
2023-12-15T11:01:36.471Z,6.05
2023-12-15T11:04:20.109Z,6.29
2023-12-15T11:06:47.157Z,6.25
2023-12-15T11:09:39.797Z,6.42
2023-12-15T11:12:32.051Z,6.58
2023-12-15T11:15:04.274Z,6.44
2023-12-15T11:17:31.986Z,6.21
2023-12-15T11:20:03.903Z,6.20
2023-12-15T11:22:41.125Z,6.22
2023-12-15T11:25:09.061Z,6.23
2023-12-15T11:28:10.079Z,6.23
2023-12-15T11:30:42.756Z,6.33
2023-12-15T11:33:22.993Z,6.39
2023-12-15T11:36:01.915Z,6.42
2023-12-15T11:38:29.961Z,6.50
2023-12-15T11:40:57.836Z,6.36
2023-12-15T11:43:24.623Z,6.35
2023-12-15T11:45:53.195Z,6.49
2023-12-15T11:48:22.187Z,6.32
2023-12-15T11:50:48.940Z,6.27
2023-12-15T11:53:16.182Z,6.21
2023-12-15T11:55:45.165Z,6.13
2023-12-15T11:58:11.492Z,6.16
2023-12-15T12:00:38.710Z,6.11
2023-12-15T12:03:05.352Z,6.22
2023-12-15T12:05:32.989Z,6.27
2023-12-15T12:08:01.135Z,6.34
2023-12-15T12:10:31.625Z,6.41
2023-12-15T12:12:59.090Z,6.45
2023-12-15T12:15:28.104Z,6.46
2023-12-15T12:17:56.317Z,6.41
2023-12-15T12:20:28.127Z,6.27
2023-12-15T12:22:56.348Z,6.07
2023-12-15T12:25:23.323Z,5.89
2023-12-15T12:27:51.574Z,5.85
2023-12-15T12:30:19.108Z,5.91
2023-12-15T12:32:47.627Z,6.00
2023-12-15T12:35:14.509Z,5.98
2023-12-15T12:37:41.036Z,5.68
2023-12-15T12:40:08.680Z,5.65
2023-12-15T12:42:35.292Z,5.85
2023-12-15T12:45:03.041Z,5.72
2023-12-15T12:47:29.859Z,5.79
2023-12-15T12:49:57.331Z,5.73
2023-12-15T12:52:23.758Z,5.88
2023-12-15T12:54:50.744Z,5.64
2023-12-15T12:57:17.373Z,5.62
2023-12-15T12:59:45.378Z,5.53
2023-12-15T13:02:18.712Z,5.70
2023-12-15T13:04:50.317Z,5.70
2023-12-15T13:07:17.066Z,5.74
2023-12-15T13:09:45.054Z,5.69
2023-12-15T13:12:18.034Z,5.79
2023-12-15T13:14:48.362Z,5.74
2023-12-15T13:17:16.404Z,5.73
2023-12-15T13:19:43.211Z,5.68
2023-12-15T13:22:09.668Z,5.68
2023-12-15T13:24:46.504Z,5.61
2023-12-15T13:27:22.293Z,5.57
2023-12-15T13:29:49.462Z,5.34
2023-12-15T13:32:18.056Z,5.39
2023-12-15T13:34:48.324Z,5.52
2023-12-15T13:37:15.553Z,5.45
2023-12-15T13:39:42.373Z,5.42
2023-12-15T13:42:08.882Z,5.36
2023-12-15T13:44:36.748Z,5.09
2023-12-15T13:47:04.123Z,5.13
2023-12-15T13:49:32.533Z,5.19
2023-12-15T13:52:00.290Z,5.10
2023-12-15T13:54:28.106Z,5.19
2023-12-15T13:56:57.301Z,5.19
2023-12-15T13:59:24.778Z,5.30
2023-12-15T14:01:51.516Z,5.12
2023-12-15T14:04:18.801Z,4.97
2023-12-15T14:06:50.402Z,4.96
2023-12-15T14:09:17.990Z,4.81
2023-12-15T14:11:44.671Z,4.69
2023-12-15T14:14:12.004Z,4.75
2023-12-15T14:16:44.445Z,4.82
2023-12-15T14:19:18.479Z,4.87
2023-12-15T14:21:46.618Z,4.87
2023-12-15T14:24:17.457Z,4.77
2023-12-15T14:26:45.005Z,4.88
2023-12-15T14:29:12.206Z,4.71
2023-12-15T14:31:38.859Z,4.78
2023-12-15T14:34:06.042Z,4.80
2023-12-15T14:36:32.988Z,4.85
2023-12-15T14:39:00.254Z,4.74
2023-12-15T14:41:27.814Z,4.76
2023-12-15T14:43:57.929Z,4.78
2023-12-15T14:46:24.600Z,4.76
2023-12-15T14:48:51.801Z,4.73
2023-12-15T14:51:18.782Z,4.74
2023-12-15T14:53:45.890Z,4.76
2023-12-15T14:56:14.864Z,4.85
2023-12-15T14:58:41.763Z,4.72
2023-12-15T15:01:08.907Z,4.90
2023-12-15T15:03:36.269Z,4.95
2023-12-15T15:06:04.088Z,4.80
2023-12-15T15:08:31.500Z,4.84
2023-12-15T15:10:59.205Z,4.89
2023-12-15T15:13:26.629Z,4.86
2023-12-15T15:15:53.415Z,4.95
2023-12-15T15:18:21.387Z,5.08
2023-12-15T15:20:48.469Z,4.86
2023-12-15T15:23:17.175Z,5.01
2023-12-15T15:25:43.925Z,4.99
2023-12-15T15:28:11.029Z,5.02
2023-12-15T15:30:39.032Z,5.10
2023-12-15T15:33:06.221Z,5.12
2023-12-15T15:35:33.364Z,5.13
2023-12-15T15:38:00.653Z,4.94
2023-12-15T15:40:28.029Z,4.93
2023-12-15T15:42:55.397Z,4.89
2023-12-15T15:45:22.443Z,4.91
2023-12-15T15:47:50.839Z,4.90
2023-12-15T15:50:18.038Z,4.84
2023-12-15T15:52:44.895Z,4.92
2023-12-15T15:55:15.079Z,4.96
2023-12-15T15:57:42.494Z,4.90
2023-12-15T16:00:09.781Z,4.91
2023-12-15T16:02:40.184Z,4.95
2023-12-15T16:05:07.399Z,4.96
2023-12-15T16:07:35.332Z,5.19
2023-12-15T16:10:02.676Z,5.17
2023-12-15T16:12:29.969Z,5.19
2023-12-15T16:14:56.618Z,5.18
2023-12-15T16:17:23.618Z,5.06
2023-12-15T16:19:50.295Z,5.13
2023-12-15T16:22:17.471Z,5.13
2023-12-15T16:24:45.878Z,5.10
2023-12-15T16:27:13.317Z,5.22
2023-12-15T16:29:39.800Z,5.11
2023-12-15T16:32:07.211Z,5.12
2023-12-15T16:34:34.648Z,4.95
2023-12-15T16:37:02.184Z,5.02
2023-12-15T16:39:28.991Z,5.16
2023-12-15T16:41:56.167Z,5.05
2023-12-15T16:44:23.698Z,5.06
2023-12-15T16:46:50.595Z,5.12
2023-12-15T16:49:17.143Z,5.02
2023-12-15T16:51:46.092Z,5.12
2023-12-15T16:54:12.772Z,5.14
2023-12-15T16:56:40.033Z,5.24
2023-12-15T16:59:06.998Z,5.21
2023-12-15T17:01:33.871Z,5.20
2023-12-15T17:04:00.573Z,5.32
2023-12-15T17:06:27.556Z,5.33
2023-12-15T17:08:54.301Z,5.36
2023-12-15T17:11:21.105Z,5.45
2023-12-15T17:13:47.717Z,5.46
2023-12-15T17:16:21.485Z,5.40
2023-12-15T17:18:49.507Z,5.33
2023-12-15T17:21:16.690Z,5.38
2023-12-15T17:23:43.695Z,5.41
2023-12-15T17:26:15.768Z,5.49
2023-12-15T17:28:42.615Z,5.53
2023-12-15T17:31:11.656Z,5.51
2023-12-15T17:33:38.737Z,5.50
2023-12-15T17:36:06.152Z,5.48
2023-12-15T17:38:32.789Z,5.42
2023-12-15T17:40:59.673Z,5.20
2023-12-15T17:43:27.526Z,5.15
2023-12-15T17:45:54.357Z,5.18
2023-12-15T17:48:21.774Z,5.18
2023-12-15T17:50:49.557Z,5.26
2023-12-15T17:53:16.300Z,5.23
2023-12-15T17:55:43.895Z,5.30
2023-12-15T17:58:12.244Z,5.33
2023-12-15T18:00:42.426Z,5.36
2023-12-15T18:03:10.325Z,5.31
2023-12-15T18:05:37.555Z,5.30
2023-12-15T18:08:04.597Z,5.28
2023-12-15T18:10:31.622Z,5.17
2023-12-15T18:12:58.313Z,5.15
2023-12-15T18:15:25.201Z,5.08
2023-12-15T18:17:52.188Z,5.11
2023-12-15T18:20:19.074Z,5.16
2023-12-15T18:22:46.045Z,5.16
2023-12-15T18:25:16.171Z,5.08
2023-12-15T18:27:44.449Z,5.15
2023-12-15T18:30:14.554Z,5.16
2023-12-15T18:32:42.206Z,5.15
2023-12-15T18:35:09.591Z,5.13
2023-12-15T18:37:36.323Z,5.15
2023-12-15T18:40:03.832Z,5.18
2023-12-15T18:42:30.525Z,5.24
2023-12-15T18:44:57.394Z,5.21
2023-12-15T18:47:25.296Z,5.26
2023-12-15T18:49:52.145Z,5.34
2023-12-15T18:52:19.733Z,5.43
2023-12-15T18:54:47.936Z,5.50
2023-12-15T18:57:15.820Z,5.56
2023-12-15T18:59:43.158Z,5.53
2023-12-15T19:02:10.139Z,5.55
2023-12-15T19:04:37.226Z,5.65
2023-12-15T19:07:04.534Z,5.69
2023-12-15T19:09:31.608Z,5.76
2023-12-15T19:11:58.414Z,5.82
2023-12-15T19:14:25.464Z,5.83
2023-12-15T19:16:52.182Z,5.85
2023-12-15T19:19:19.214Z,5.80
2023-12-15T19:21:46.290Z,5.83
2023-12-15T19:24:13.197Z,5.78
2023-12-15T19:26:40.626Z,5.81
2023-12-15T19:29:08.228Z,5.79
2023-12-15T19:31:37.896Z,5.79
2023-12-15T19:34:05.664Z,5.73
2023-12-15T19:36:37.248Z,5.85
2023-12-15T19:39:07.818Z,5.82
2023-12-15T19:41:35.095Z,5.79
2023-12-15T19:44:05.490Z,5.81
2023-12-15T19:46:38.315Z,5.85
2023-12-15T19:49:06.245Z,5.85
2023-12-15T19:51:32.830Z,5.97
2023-12-15T19:54:05.712Z,5.97
2023-12-15T19:56:41.248Z,5.96
2023-12-15T19:59:09.177Z,5.96
2023-12-15T20:01:36.039Z,5.99
2023-12-15T20:04:04.468Z,6.09
2023-12-15T20:06:33.366Z,6.02
2023-12-15T20:09:04.560Z,6.08
2023-12-15T20:11:36.982Z,6.01
2023-12-15T20:14:05.999Z,6.03
2023-12-15T20:16:33.334Z,6.02
2023-12-15T20:19:01.230Z,6.10
2023-12-15T20:21:32.576Z,6.07
2023-12-15T20:23:59.751Z,5.98
2023-12-15T20:26:27.095Z,6.03
2023-12-15T20:28:54.557Z,6.03
2023-12-15T20:31:22.638Z,6.04
2023-12-15T20:33:49.764Z,6.00
2023-12-15T20:36:19.243Z,6.07
2023-12-15T20:38:46.334Z,6.07
2023-12-15T20:41:21.003Z,5.98
2023-12-15T20:43:49.047Z,6.01
2023-12-15T20:46:19.281Z,6.05
2023-12-15T20:48:46.677Z,6.04
2023-12-15T20:51:23.602Z,6.17
2023-12-15T20:53:50.321Z,6.16
2023-12-15T20:56:27.346Z,6.18
2023-12-15T20:58:55.106Z,6.17
2023-12-15T21:01:22.288Z,6.12
2023-12-15T21:03:49.168Z,6.20
2023-12-15T21:06:23.646Z,6.16
2023-12-15T21:08:54.634Z,6.19
2023-12-15T21:11:21.925Z,6.16
2023-12-15T21:13:51.616Z,6.21
2023-12-15T21:16:26.165Z,6.23
2023-12-15T21:18:53.501Z,6.29
2023-12-15T21:21:31.557Z,6.32
2023-12-15T21:23:58.708Z,6.35
2023-12-15T21:26:26.080Z,6.39
2023-12-15T21:28:54.744Z,6.37
2023-12-15T21:31:22.067Z,6.33
2023-12-15T21:33:49.308Z,6.34
2023-12-15T21:36:16.610Z,6.36
2023-12-15T21:38:43.761Z,6.39
2023-12-15T21:41:15.015Z,6.35
2023-12-15T21:43:42.067Z,6.45
2023-12-15T21:46:09.158Z,6.38
2023-12-15T21:48:35.788Z,6.54
2023-12-15T21:51:03.176Z,6.45
2023-12-15T21:53:29.945Z,6.43
2023-12-15T21:55:57.031Z,6.45
2023-12-15T21:58:24.041Z,6.45
2023-12-15T22:00:51.429Z,6.46
2023-12-15T22:03:18.455Z,6.37
2023-12-15T22:05:46.811Z,6.34
2023-12-15T22:08:13.536Z,6.35
2023-12-15T22:10:40.842Z,6.36
2023-12-15T22:13:08.616Z,6.42
2023-12-15T22:15:36.280Z,6.44
2023-12-15T22:18:03.330Z,6.39
2023-12-15T22:20:31.033Z,6.40
2023-12-15T22:22:57.939Z,6.37
2023-12-15T22:25:25.217Z,6.42
2023-12-15T22:27:52.230Z,6.48
2023-12-15T22:30:24.705Z,6.48
2023-12-15T22:32:52.900Z,6.47
2023-12-15T22:35:20.862Z,6.57
2023-12-15T22:37:47.858Z,6.54
2023-12-15T22:40:16.065Z,6.52
2023-12-15T22:42:43.982Z,6.57
2023-12-15T22:45:11.673Z,6.44
2023-12-15T22:47:39.706Z,6.48
2023-12-15T22:50:08.723Z,6.44
2023-12-15T22:52:36.042Z,6.45
2023-12-15T22:55:03.868Z,6.48
2023-12-15T22:57:30.523Z,6.43
2023-12-15T22:59:57.380Z,6.54
2023-12-15T23:02:24.172Z,6.62
2023-12-15T23:04:51.569Z,6.54
2023-12-15T23:07:18.931Z,6.56
2023-12-15T23:09:47.501Z,6.52
2023-12-15T23:12:14.041Z,6.48
2023-12-15T23:14:41.847Z,6.49
2023-12-15T23:17:09.130Z,6.55
2023-12-15T23:19:36.682Z,6.55
2023-12-15T23:22:03.507Z,6.63
2023-12-15T23:24:32.769Z,6.61
2023-12-15T23:27:00.104Z,6.74
2023-12-15T23:29:27.519Z,6.65
2023-12-15T23:31:56.599Z,6.70
2023-12-15T23:34:24.499Z,6.68
2023-12-15T23:36:51.360Z,6.65
2023-12-15T23:39:18.572Z,6.67
2023-12-15T23:41:47.940Z,6.59
2023-12-15T23:44:14.944Z,6.64
2023-12-15T23:46:42.082Z,6.63
2023-12-15T23:49:08.889Z,6.66
2023-12-15T23:51:35.335Z,6.68
2023-12-15T23:54:03.709Z,6.61
2023-12-15T23:56:30.500Z,6.64
2023-12-15T23:58:57.202Z,6.73
